Time;durP1;ratioP1;P1;durP2;ratioP2;P2;SDS_P1;SDS_P2;PMS_P1;PMS_P2;Temp;Humidity;BMP_temperature;BMP_pressure;BME280_temperature;BME280_humidity;BME280_pressure;Samples;Min_cycle;Max_cycle;Signal;HPM_P1;HPM_P2
2022/11/21 00:00:16;;;;;;;1.30;0.80;;;21.50;56.00;;;;;;5029071;28;20037;-67
2022/11/21 00:02:42;;;;;;;1.55;0.98;;;21.50;56.10;;;;;;5007080;28;20443;-65
2022/11/21 00:05:08;;;;;;;1.33;0.77;;;21.50;56.10;;;;;;5032718;28;20026;-65
2022/11/21 00:07:33;;;;;;;1.10;0.68;;;21.50;56.10;;;;;;5034957;28;20049;-65
2022/11/21 00:09:59;;;;;;;1.85;0.75;;;21.50;56.10;;;;;;5020976;28;20021;-65
2022/11/21 00:12:25;;;;;;;1.80;0.80;;;21.50;56.10;;;;;;5035507;28;20021;-64
2022/11/21 00:14:51;;;;;;;1.15;0.80;;;21.40;56.10;;;;;;5038973;28;20132;-66
2022/11/21 00:17:16;;;;;;;1.40;0.80;;;21.40;56.10;;;;;;5021454;28;20048;-64
2022/11/21 00:19:42;;;;;;;1.05;0.70;;;21.40;56.10;;;;;;5027226;28;20026;-65
2022/11/21 00:22:08;;;;;;;1.27;0.80;;;21.40;56.20;;;;;;5034571;28;20030;-64
2022/11/21 00:24:33;;;;;;;1.80;1.00;;;21.40;56.20;;;;;;5033900;28;20088;-64
2022/11/21 00:26:59;;;;;;;1.50;0.70;;;21.40;56.20;;;;;;5032515;28;20059;-66
2022/11/21 00:29:25;;;;;;;2.13;0.80;;;21.30;56.20;;;;;;5034213;28;20026;-64
2022/11/21 00:31:50;;;;;;;1.08;0.80;;;21.30;56.20;;;;;;5033365;28;20477;-65
2022/11/21 00:34:16;;;;;;;1.40;0.90;;;21.30;56.30;;;;;;5033451;28;20037;-67
2022/11/21 00:36:41;;;;;;;0.90;0.70;;;21.30;56.30;;;;;;5030231;28;20077;-67
2022/11/21 00:39:07;;;;;;;1.05;0.63;;;21.30;56.30;;;;;;5027032;28;20040;-66
2022/11/21 00:41:33;;;;;;;1.25;0.70;;;21.30;56.30;;;;;;5032250;28;20029;-67
2022/11/21 00:43:59;;;;;;;1.27;0.73;;;21.20;56.30;;;;;;5035604;28;20496;-67
2022/11/21 00:46:24;;;;;;;1.10;0.80;;;21.20;56.30;;;;;;5020107;28;20514;-67
2022/11/21 00:48:50;;;;;;;0.85;0.70;;;21.20;56.40;;;;;;5020490;28;20026;-66
2022/11/21 00:51:16;;;;;;;1.63;0.80;;;21.20;56.30;;;;;;5036090;28;20144;-66
2022/11/21 00:53:41;;;;;;;0.93;0.60;;;21.20;56.30;;;;;;5028955;28;20033;-67
2022/11/21 00:56:07;;;;;;;1.20;0.70;;;21.20;56.30;;;;;;5037675;28;20029;-66
2022/11/21 00:58:33;;;;;;;1.23;0.60;;;21.20;56.30;;;;;;5036760;28;20571;-66
2022/11/21 01:01:04;;;;;;;1.33;0.70;;;21.20;56.40;;;;;;5038274;28;20199;-68
2022/11/21 01:03:32;;;;;;;1.90;0.80;;;21.20;56.40;;;;;;5040455;28;20184;-66
2022/11/21 01:06:07;;;;;;;1.20;0.80;;;21.10;56.30;;;;;;5041053;28;20021;-67
2022/11/21 01:08:35;;;;;;;1.63;0.85;;;21.10;56.30;;;;;;5028444;28;20083;-66
2022/11/21 01:11:06;;;;;;;1.10;0.68;;;21.10;56.30;;;;;;5035391;28;20029;-66
2022/11/21 01:13:33;;;;;;;0.88;0.70;;;21.10;56.30;;;;;;5031363;28;20373;-66
2022/11/21 01:16:25;;;;;;;0.98;0.80;;;21.10;56.20;;;;;;5034387;28;20025;-67
2022/11/21 01:18:51;;;;;;;1.10;0.70;;;21.10;56.20;;;;;;5021452;28;20524;-65
2022/11/21 01:21:26;;;;;;;1.17;0.73;;;21.10;56.20;;;;;;5020016;28;20025;-66
2022/11/21 01:23:52;;;;;;;0.73;0.60;;;21.10;56.30;;;;;;5039959;28;20101;-66
2022/11/21 01:26:21;;;;;;;0.90;0.60;;;21.00;56.20;;;;;;5039979;28;20029;-66
2022/11/21 01:28:47;;;;;;;0.90;0.70;;;21.00;56.20;;;;;;5036090;28;20021;-66
2022/11/21 01:31:15;;;;;;;1.00;0.68;;;21.00;56.20;;;;;;5019795;28;20056;-67
2022/11/21 01:33:42;;;;;;;1.23;0.70;;;21.00;56.20;;;;;;5042043;28;20028;-66
2022/11/21 01:36:21;;;;;;;1.40;0.60;;;21.00;56.20;;;;;;5040761;28;20455;-66
2022/11/21 01:38:48;;;;;;;;;;;21.00;56.30;;;;;;5034358;28;20496;-64
2022/11/21 01:41:17;;;;;;;1.25;0.90;;;21.00;56.30;;;;;;5032915;28;19920;-65
2022/11/21 01:43:43;;;;;;;1.17;0.70;;;20.90;56.30;;;;;;5021419;28;20044;-65
2022/11/21 01:46:19;;;;;;;0.90;0.70;;;20.90;56.20;;;;;;5026199;28;20034;-67
2022/11/21 01:49:02;;;;;;;1.08;0.80;;;20.90;56.30;;;;;;5034485;28;20033;-66
2022/11/21 01:51:39;;;;;;;0.80;0.60;;;20.90;56.30;;;;;;5043045;28;20465;-66
2022/11/21 01:54:15;;;;;;;0.90;0.60;;;20.90;56.40;;;;;;5038723;28;20084;-66
2022/11/21 01:56:48;;;;;;;0.77;0.60;;;20.90;56.40;;;;;;5036312;28;20025;-67
2022/11/21 01:59:28;;;;;;;0.70;0.60;;;20.90;56.40;;;;;;5036987;28;20026;-66
2022/11/21 02:01:54;;;;;;;1.25;0.70;;;20.90;56.40;;;;;;5043806;28;20523;-66
2022/11/21 02:04:23;;;;;;;1.27;0.65;;;20.90;56.30;;;;;;5038412;28;20481;-66
2022/11/21 02:06:50;;;;;;;1.00;0.65;;;20.80;56.30;;;;;;5036786;28;20029;-66
2022/11/21 02:09:16;;;;;;;0.88;0.60;;;20.80;56.30;;;;;;5021644;28;20096;-66
2022/11/21 02:11:53;;;;;;;0.93;0.68;;;20.90;56.90;;;;;;5041353;28;20113;-65
2022/11/21 02:14:19;;;;;;;0.80;0.60;;;20.80;56.40;;;;;;5038335;28;20041;-65
2022/11/21 02:16:45;;;;;;;1.00;0.70;;;20.80;56.40;;;;;;5038531;28;20337;-67
2022/11/21 02:19:19;;;;;;;0.90;0.60;;;20.80;56.40;;;;;;5029477;28;20026;-66
2022/11/21 02:22:08;;;;;;;1.20;0.70;;;20.80;56.40;;;;;;5024825;28;20040;-67
2022/11/21 02:24:44;;;;;;;1.00;0.70;;;20.80;56.50;;;;;;5025158;28;20045;-65
2022/11/21 02:27:10;;;;;;;1.20;0.70;;;20.80;56.50;;;;;;5038864;28;20475;-65
2022/11/21 02:29:37;;;;;;;0.82;0.60;;;20.80;56.50;;;;;;5034464;28;20084;-65
2022/11/21 02:32:04;;;;;;;0.50;0.50;;;20.70;56.50;;;;;;5030279;28;20037;-65
2022/11/21 02:34:31;;;;;;;0.75;0.60;;;20.70;56.50;;;;;;5031838;28;20128;-65
2022/11/21 02:36:57;;;;;;;0.70;0.60;;;20.70;56.50;;;;;;5033491;28;20099;-67
2022/11/21 02:39:29;;;;;;;0.50;0.50;;;20.70;56.60;;;;;;5045105;28;20041;-67
2022/11/21 02:42:17;;;;;;;1.00;0.70;;;20.70;56.60;;;;;;5039575;28;20488;-66
2022/11/21 02:44:46;;;;;;;1.00;0.73;;;20.70;56.60;;;;;;5037171;28;20025;-65
2022/11/21 02:47:12;;;;;;;0.93;0.70;;;20.70;56.60;;;;;;5029793;28;20468;-65
2022/11/21 02:49:47;;;;;;;0.88;0.60;;;20.70;56.60;;;;;;5036536;28;20122;-65
2022/11/21 02:52:13;;;;;;;0.88;0.65;;;20.70;56.60;;;;;;5037007;28;20175;-66
2022/11/21 02:54:38;;;;;;;1.25;0.85;;;20.60;56.60;;;;;;5031846;28;20513;-64
2022/11/21 02:57:04;;;;;;;1.15;0.70;;;20.70;56.70;;;;;;5030165;28;20481;-65
2022/11/21 02:59:29;;;;;;;0.82;0.50;;;20.60;56.70;;;;;;5032734;28;20416;-65
2022/11/21 03:01:58;;;;;;;0.88;0.65;;;20.60;56.70;;;;;;5035400;28;20075;-66
2022/11/21 03:04:24;;;;;;;0.60;0.60;;;20.60;56.70;;;;;;5036453;28;20215;-64
2022/11/21 03:06:50;;;;;;;0.88;0.60;;;20.60;56.70;;;;;;5034900;28;20137;-65
2022/11/21 03:09:15;;;;;;;1.00;0.60;;;20.60;56.70;;;;;;5035478;28;20100;-66
2022/11/21 03:11:41;;;;;;;1.08;0.70;;;20.60;56.70;;;;;;5034463;28;20029;-65
2022/11/21 03:14:07;;;;;;;1.20;0.70;;;20.60;56.70;;;;;;5032931;28;20361;-65
2022/11/21 03:16:32;;;;;;;0.93;0.60;;;20.60;56.80;;;;;;5036288;28;20079;-64
2022/11/21 03:18:58;;;;;;;0.50;0.50;;;20.50;56.70;;;;;;5036763;28;20032;-65
2022/11/21 03:21:24;;;;;;;0.88;0.60;;;20.50;56.70;;;;;;5037932;28;20109;-65
2022/11/21 03:23:49;;;;;;;0.80;0.60;;;20.60;56.80;;;;;;5028562;28;20694;-63
2022/11/21 03:26:15;;;;;;;0.70;0.60;;;20.50;56.80;;;;;;5027753;28;20022;-66
2022/11/21 03:28:41;;;;;;;0.85;0.70;;;20.60;56.80;;;;;;5020985;28;20049;-63
2022/11/21 03:31:07;;;;;;;0.63;0.50;;;20.60;56.80;;;;;;5033307;28;20032;-64
2022/11/21 03:33:33;;;;;;;0.93;0.60;;;20.50;56.80;;;;;;5037194;28;20029;-64
2022/11/21 03:35:58;;;;;;;0.60;0.50;;;20.50;56.80;;;;;;5041213;28;20075;-64
2022/11/21 03:38:24;;;;;;;0.75;0.50;;;20.50;56.80;;;;;;5044101;28;20045;-64
2022/11/21 03:40:49;;;;;;;0.70;0.60;;;20.50;56.80;;;;;;5028638;28;20025;-66
2022/11/21 03:43:15;;;;;;;0.73;0.60;;;20.50;56.80;;;;;;5035621;28;20025;-65
2022/11/21 03:45:41;;;;;;;0.88;0.60;;;20.50;56.90;;;;;;5021696;28;20032;-65
2022/11/21 03:48:06;;;;;;;1.30;0.80;;;20.50;56.90;;;;;;5037255;28;20504;-65
2022/11/21 03:50:32;;;;;;;0.57;0.50;;;20.50;56.80;;;;;;5038203;28;20399;-65
2022/11/21 03:52:57;;;;;;;0.60;0.60;;;20.50;56.80;;;;;;5016217;28;20332;-65
2022/11/21 03:55:23;;;;;;;0.50;0.40;;;20.50;56.80;;;;;;5039528;28;20033;-65
2022/11/21 03:57:49;;;;;;;0.85;0.55;;;20.50;56.80;;;;;;5041729;28;20507;-64
2022/11/21 04:00:15;;;;;;;0.77;0.60;;;20.50;56.80;;;;;;5033082;28;20033;-67
2022/11/21 04:02:41;;;;;;;0.55;0.50;;;20.50;56.90;;;;;;5028024;28;20026;-64
2022/11/21 04:05:07;;;;;;;1.08;0.70;;;20.40;56.80;;;;;;5019052;28;20044;-65
2022/11/21 04:07:32;;;;;;;0.75;0.60;;;20.50;56.90;;;;;;5027641;28;20028;-64
2022/11/21 04:09:58;;;;;;;0.95;0.60;;;20.40;56.90;;;;;;5029090;28;20021;-65
2022/11/21 04:12:23;;;;;;;0.70;0.70;;;20.40;56.90;;;;;;5032883;28;20294;-65
2022/11/21 04:14:49;;;;;;;0.85;0.60;;;20.50;57.00;;;;;;5025066;28;20038;-63
2022/11/21 04:17:14;;;;;;;0.60;0.50;;;20.40;56.90;;;;;;5024059;28;20034;-66
2022/11/21 04:19:40;;;;;;;0.73;0.63;;;20.40;56.90;;;;;;5033471;28;20026;-63
2022/11/21 04:22:06;;;;;;;0.95;0.60;;;20.40;56.90;;;;;;5039110;28;20099;-64
2022/11/21 04:24:31;;;;;;;0.70;0.60;;;20.40;57.00;;;;;;5044048;28;20457;-65
2022/11/21 04:26:57;;;;;;;1.13;0.70;;;20.40;57.00;;;;;;5035518;28;20488;-64
2022/11/21 04:29:23;;;;;;;0.73;0.50;;;20.40;57.00;;;;;;5033134;28;20377;-64
2022/11/21 04:31:48;;;;;;;0.98;0.50;;;20.40;57.00;;;;;;5034013;28;20061;-64
2022/11/21 04:34:14;;;;;;;1.00;0.60;;;20.40;57.50;;;;;;5043874;28;20045;-65
2022/11/21 04:36:39;;;;;;;0.50;0.50;;;20.40;57.00;;;;;;5037225;28;20100;-65
2022/11/21 04:39:05;;;;;;;0.50;0.47;;;20.40;57.00;;;;;;5027580;28;20060;-66
2022/11/21 04:41:31;;;;;;;0.60;0.50;;;20.40;57.00;;;;;;5025390;28;20489;-67
2022/11/21 04:43:56;;;;;;;0.60;0.50;;;20.40;57.00;;;;;;5029736;28;20022;-65
2022/11/21 04:46:22;;;;;;;1.27;0.70;;;20.40;57.00;;;;;;5034921;28;20055;-64
2022/11/21 04:48:48;;;;;;;0.88;0.60;;;20.40;57.50;;;;;;5033815;28;20022;-65
2022/11/21 04:51:13;;;;;;;0.45;0.45;;;20.40;57.00;;;;;;5026964;28;20088;-66
2022/11/21 04:53:39;;;;;;;0.68;0.50;;;20.40;57.00;;;;;;5028411;28;20451;-65
2022/11/21 04:56:05;;;;;;;0.65;0.60;;;20.40;57.00;;;;;;5026306;28;20041;-65
2022/11/21 04:58:31;;;;;;;0.57;0.50;;;20.40;57.00;;;;;;5031543;28;20408;-65
2022/11/21 05:00:56;;;;;;;0.40;0.40;;;20.40;57.00;;;;;;5035643;28;20030;-64
2022/11/21 05:03:22;;;;;;;0.70;0.50;;;20.30;57.00;;;;;;5029691;28;20598;-65
2022/11/21 05:05:47;;;;;;;0.65;0.60;;;20.30;57.10;;;;;;5029330;28;20017;-65
2022/11/21 05:08:13;;;;;;;0.50;0.40;;;20.30;57.20;;;;;;5038782;28;20384;-65
2022/11/21 05:13:24;;;;;;;0.65;0.52;;;20.30;57.90;;;;;;5043108;28;20040;-67
2022/11/21 05:15:55;;;;;;;0.68;0.57;;;20.20;57.50;;;;;;5035336;28;20717;-64
2022/11/21 05:18:21;;;;;;;0.40;0.40;;;20.20;57.60;;;;;;5038432;28;20471;-64
2022/11/21 05:20:46;;;;;;;0.57;0.40;;;20.30;57.60;;;;;;5040712;28;20033;-66
2022/11/21 05:23:12;;;;;;;0.55;0.50;;;20.20;57.50;;;;;;5042389;28;20416;-65
2022/11/21 05:25:38;;;;;;;0.65;0.50;;;20.30;57.50;;;;;;5038614;28;20029;-65
2022/11/21 05:28:03;;;;;;;0.50;0.40;;;20.30;57.50;;;;;;5036520;28;20405;-63
2022/11/21 05:30:29;;;;;;;0.50;0.50;;;20.20;57.50;;;;;;5035848;28;20097;-63
2022/11/21 05:32:55;;;;;;;0.50;0.50;;;20.30;57.50;;;;;;5038656;28;20063;-62
2022/11/21 05:35:20;;;;;;;0.50;0.50;;;20.30;57.50;;;;;;5039688;28;20032;-62
2022/11/21 05:37:46;;;;;;;0.60;0.50;;;20.30;57.50;;;;;;5037771;28;20054;-62
2022/11/21 05:40:11;;;;;;;0.60;0.50;;;20.30;57.50;;;;;;5037614;28;20041;-62
2022/11/21 05:45:25;;;;;;;0.57;0.50;;;20.30;57.50;;;;;;5037670;28;20113;-62
2022/11/21 05:47:51;;;;;;;0.55;0.45;;;20.30;57.50;;;;;;5029450;28;20117;-62
2022/11/21 05:50:17;;;;;;;0.77;0.50;;;20.30;57.50;;;;;;5035563;28;20056;-63
2022/11/21 05:52:42;;;;;;;0.63;0.45;;;20.20;57.40;;;;;;5029008;28;20026;-63
2022/11/21 05:55:08;;;;;;;0.60;0.60;;;20.20;57.50;;;;;;5029890;28;20117;-62
2022/11/21 05:57:33;;;;;;;0.82;0.57;;;20.20;57.50;;;;;;5023601;28;20421;-62
2022/11/21 05:59:59;;;;;;;0.80;0.70;;;20.20;57.50;;;;;;5039781;28;20067;-63
2022/11/21 06:05:09;;;;;;;0.70;0.50;;;20.20;57.50;;;;;;5039909;28;20040;-63
2022/11/21 06:07:34;;;;;;;0.50;0.50;;;20.20;57.60;;;;;;5042913;28;20383;-63
2022/11/21 06:10:00;;;;;;;0.77;0.50;;;20.20;57.80;;;;;;5042234;28;20084;-63
2022/11/21 06:12:25;;;;;;;0.57;0.57;;;20.10;58.00;;;;;;5032375;28;20447;-63
2022/11/21 06:14:51;;;;;;;1.23;0.70;;;20.20;58.20;;;;;;5032047;28;20032;-63
2022/11/21 06:17:17;;;;;;;1.30;0.60;;;20.20;58.30;;;;;;5041715;28;20036;-63
2022/11/21 06:19:42;;;;;;;0.75;0.50;;;20.10;58.30;;;;;;5042310;28;20473;-63
2022/11/21 06:22:08;;;;;;;1.20;0.60;;;20.10;58.20;;;;;;5042023;28;20033;-63
2022/11/21 06:24:33;;;;;;;0.95;0.50;;;20.10;58.50;;;;;;5031283;28;20065;-64
2022/11/21 06:26:59;;;;;;;0.75;0.47;;;20.10;58.10;;;;;;5029148;28;20029;-64
2022/11/21 06:29:24;;;;;;;1.48;0.60;;;20.10;57.70;;;;;;5032163;28;20033;-63
2022/11/21 06:31:50;;;;;;;1.17;0.68;;;20.10;58.10;;;;;;5031979;28;20067;-63
2022/11/21 06:34:16;;;;;;;0.60;0.50;;;20.10;58.10;;;;;;5030821;28;20429;-63
2022/11/21 06:36:43;;;;;;;0.90;0.60;;;20.10;58.10;;;;;;5023675;28;20032;-63
2022/11/21 06:39:09;;;;;;;1.10;0.63;;;20.10;58.10;;;;;;5026280;28;20072;-63
2022/11/21 06:41:34;;;;;;;0.98;0.60;;;20.10;59.40;;;;;;5040203;28;20491;-63
2022/11/21 06:44:00;;;;;;;0.80;0.63;;;20.30;59.70;;;;;;5038713;28;20120;-63
2022/11/21 06:46:26;;;;;;;0.57;0.50;;;20.50;59.70;;;;;;5018927;28;20022;-63
2022/11/21 06:48:52;;;;;;;1.13;0.70;;;20.70;59.20;;;;;;5040897;28;20034;-63
2022/11/21 06:51:21;;;;;;;1.02;0.60;;;20.90;59.30;;;;;;5035938;28;20084;-64
2022/11/21 06:53:54;;;;;;;1.13;0.60;;;21.10;59.00;;;;;;5038929;28;20034;-63
2022/11/21 06:56:20;;;;;;;1.27;0.50;;;21.20;58.80;;;;;;5043685;28;20036;-63
2022/11/21 06:58:46;;;;;;;1.13;0.70;;;21.40;58.40;;;;;;5030747;28;20104;-63
2022/11/21 07:01:12;;;;;;;0.95;0.60;;;21.50;58.20;;;;;;5038095;28;20105;-62
2022/11/21 07:03:38;;;;;;;0.80;0.60;;;21.70;58.10;;;;;;5023884;28;20034;-63
2022/11/21 07:06:05;;;;;;;1.42;0.70;;;21.90;57.90;;;;;;5044207;28;20103;-64
2022/11/21 07:08:34;;;;;;;1.58;0.60;;;22.10;57.60;;;;;;5035023;28;20025;-64
2022/11/21 07:11:04;;;;;;;1.20;0.60;;;22.30;57.70;;;;;;5029557;28;20046;-63
2022/11/21 07:13:31;;;;;;;0.82;0.47;;;22.50;57.30;;;;;;5028051;28;20025;-64
2022/11/21 07:16:01;;;;;;;0.70;0.47;;;22.60;57.30;;;;;;5030441;28;20064;-64
2022/11/21 07:18:28;;;;;;;1.15;0.40;;;22.70;56.90;;;;;;5034295;28;20485;-64
2022/11/21 07:20:58;;;;;;;0.40;0.40;;;22.60;57.00;;;;;;5036635;28;20029;-63
2022/11/21 07:23:24;;;;;;;4.05;0.70;;;22.50;57.30;;;;;;5029766;28;20030;-64
2022/11/21 07:25:49;;;;;;;1.45;0.50;;;22.50;57.70;;;;;;5030153;28;20080;-64
2022/11/21 07:28:15;;;;;;;1.80;0.63;;;22.50;57.70;;;;;;5029865;28;20056;-64
2022/11/21 07:30:41;;;;;;;1.95;0.68;;;22.50;58.20;;;;;;5029691;28;20017;-64
2022/11/21 07:33:08;;;;;;;1.45;0.60;;;22.70;58.10;;;;;;5037782;28;20472;-64
2022/11/21 07:35:34;;;;;;;1.08;0.55;;;22.90;57.60;;;;;;5008683;28;20040;-64
2022/11/21 07:38:01;;;;;;;0.90;0.60;;;23.00;57.50;;;;;;5038359;28;20037;-64
2022/11/21 07:40:27;;;;;;;0.40;0.40;;;22.90;57.40;;;;;;5041354;28;20662;-64
2022/11/21 07:42:52;;;;;;;0.52;0.30;;;22.90;57.60;;;;;;5045423;28;20392;-64
2022/11/21 07:45:18;;;;;;;2.13;0.60;;;22.90;57.80;;;;;;5040915;28;20017;-65
2022/11/21 07:47:44;;;;;;;0.75;0.50;;;23.00;57.80;;;;;;5033053;28;20034;-64
2022/11/21 07:50:11;;;;;;;2.50;0.80;;;23.10;57.50;;;;;;5035754;28;20105;-64
2022/11/21 07:52:37;;;;;;;0.90;0.45;;;23.10;57.40;;;;;;5037507;28;20476;-64
2022/11/21 07:55:04;;;;;;;0.70;0.50;;;23.10;57.40;;;;;;5041674;28;20028;-64
2022/11/21 07:57:31;;;;;;;1.25;0.50;;;23.10;56.70;;;;;;5032252;28;20083;-63
2022/11/21 07:59:57;;;;;;;0.93;0.70;;;23.00;56.20;;;;;;5032170;28;20024;-64
2022/11/21 08:02:27;;;;;;;2.03;0.82;;;23.10;56.30;;;;;;5032896;28;20028;-64
2022/11/21 08:04:53;;;;;;;0.70;0.50;;;23.10;56.80;;;;;;5035191;28;20029;-64
2022/11/21 08:07:20;;;;;;;0.68;0.40;;;23.30;56.70;;;;;;5036441;28;20025;-65
2022/11/21 08:09:46;;;;;;;0.93;0.57;;;23.40;56.70;;;;;;5029806;28;20029;-64
2022/11/21 08:12:13;;;;;;;1.48;0.57;;;23.40;57.20;;;;;;5035238;28;20029;-64
2022/11/21 08:14:39;;;;;;;2.53;0.70;;;23.40;56.90;;;;;;5032414;28;20571;-63
2022/11/21 08:17:05;;;;;;;3.78;0.80;;;23.40;57.00;;;;;;5027814;28;20461;-64
2022/11/21 08:19:31;;;;;;;4.38;1.10;;;23.40;57.20;;;;;;5024955;28;20050;-64
2022/11/21 08:21:57;;;;;;;2.88;0.90;;;23.40;55.50;;;;;;5017904;28;20080;-64
2022/11/21 08:24:23;;;;;;;2.15;0.73;;;23.40;54.20;;;;;;5025422;28;20369;-63
2022/11/21 08:26:50;;;;;;;1.75;0.80;;;23.30;53.30;;;;;;5034588;28;20033;-64
2022/11/21 08:29:15;;;;;;;1.52;0.70;;;23.30;53.30;;;;;;5044798;28;20507;-64
2022/11/21 08:31:42;;;;;;;1.08;0.70;;;23.30;53.40;;;;;;5038584;28;20033;-64
2022/11/21 08:34:08;;;;;;;3.33;0.90;;;23.20;53.60;;;;;;5026861;28;20060;-65
2022/11/21 08:36:34;;;;;;;1.90;1.02;;;23.20;53.50;;;;;;5035773;28;20041;-65
2022/11/21 08:38:59;;;;;;;2.38;0.70;;;23.20;53.50;;;;;;5040021;28;20055;-64
2022/11/21 08:44:09;;;;;;;2.50;0.70;;;23.20;53.40;;;;;;5031400;28;20036;-63
2022/11/21 08:46:36;;;;;;;1.95;0.77;;;23.20;53.20;;;;;;5028829;28;20473;-65
2022/11/21 08:49:05;;;;;;;2.30;0.80;;;23.20;53.10;;;;;;5037463;28;20035;-64
2022/11/21 08:51:31;;;;;;;;;;;23.20;53.20;;;;;;5020393;28;20052;-64
2022/11/21 08:53:56;;;;;;;2.47;0.80;;;23.20;53.10;;;;;;5033178;28;19948;-64
2022/11/21 08:56:22;;;;;;;2.65;0.98;;;23.20;53.30;;;;;;5022958;28;20027;-63
2022/11/21 08:58:47;;;;;;;3.72;0.90;;;23.20;53.20;;;;;;5023944;28;20026;-64
2022/11/21 09:01:13;;;;;;;2.03;0.70;;;23.20;53.20;;;;;;5026435;28;20034;-64
2022/11/21 09:03:39;;;;;;;2.22;0.60;;;23.10;53.10;;;;;;5018567;28;20067;-64
2022/11/21 09:06:05;;;;;;;2.00;0.80;;;23.10;53.40;;;;;;5018065;28;20037;-65
2022/11/21 09:08:30;;;;;;;1.25;0.80;;;23.10;53.60;;;;;;5026573;28;20025;-64
2022/11/21 09:10:56;;;;;;;2.00;0.70;;;23.10;53.50;;;;;;5025306;28;20485;-64
2022/11/21 09:13:22;;;;;;;2.35;0.70;;;23.10;53.30;;;;;;5025816;28;20499;-63
2022/11/21 09:18:32;;;;;;;1.20;0.70;;;23.00;53.30;;;;;;5042002;28;20079;-64
2022/11/21 09:20:58;;;;;;;1.15;0.68;;;23.00;53.20;;;;;;5017879;28;20124;-64
2022/11/21 09:23:23;;;;;;;1.52;0.75;;;23.00;53.50;;;;;;5036231;28;20142;-63
2022/11/21 09:25:49;;;;;;;1.70;0.70;;;23.00;53.50;;;;;;5035472;28;20485;-63
2022/11/21 09:28:14;;;;;;;1.42;0.70;;;23.00;53.90;;;;;;5038152;28;20264;-64
2022/11/21 09:30:41;;;;;;;0.77;0.50;;;23.00;53.90;;;;;;5031528;28;20025;-64
2022/11/21 09:33:10;;;;;;;2.17;0.88;;;23.00;53.80;;;;;;5027639;28;20032;-63
2022/11/21 09:35:36;;;;;;;1.23;0.80;;;23.00;53.70;;;;;;5029220;28;20468;-64
2022/11/21 09:38:02;;;;;;;0.70;0.50;;;23.00;53.70;;;;;;5033263;28;20490;-64
2022/11/21 09:40:30;;;;;;;1.35;0.50;;;22.90;53.70;;;;;;5036288;28;20038;-63
2022/11/21 09:43:34;;;;;;;1.80;0.52;;;22.90;53.80;;;;;;5032633;28;20050;-64
2022/11/21 09:46:11;;;;;;;2.40;0.57;;;22.90;54.10;;;;;;5029917;28;20032;-64
2022/11/21 09:48:59;;;;;;;2.58;0.80;;;23.00;54.10;;;;;;5029215;28;20022;-64
2022/11/21 09:51:29;;;;;;;2.40;0.90;;;22.90;53.70;;;;;;5029276;28;20038;-63
2022/11/21 09:54:01;;;;;;;1.35;0.60;;;22.90;53.70;;;;;;5035442;28;20061;-63
2022/11/21 09:56:30;;;;;;;1.40;0.70;;;23.00;53.70;;;;;;5036090;28;20116;-64
2022/11/21 09:59:18;;;;;;;0.93;0.60;;;22.90;53.50;;;;;;5034733;28;20076;-62
2022/11/21 10:01:44;;;;;;;1.52;0.60;;;22.90;53.60;;;;;;5034423;28;20036;-63
2022/11/21 10:04:09;;;;;;;1.10;0.60;;;22.90;53.80;;;;;;5027924;28;20153;-63
2022/11/21 10:06:48;;;;;;;1.58;0.80;;;22.90;53.80;;;;;;5035109;28;20022;-65
2022/11/21 10:09:41;;;;;;;1.33;0.70;;;22.90;53.70;;;;;;5036483;28;20487;-63
2022/11/21 10:12:38;;;;;;;2.17;0.75;;;22.90;53.80;;;;;;5040669;28;20052;-64
2022/11/21 10:15:29;;;;;;;2.38;0.80;;;22.90;53.80;;;;;;5042591;28;20033;-64
2022/11/21 10:17:57;;;;;;;0.80;0.70;;;22.90;53.80;;;;;;5027825;28;20053;-64
2022/11/21 10:20:33;;;;;;;1.23;0.70;;;22.80;53.70;;;;;;5038460;28;20033;-64
2022/11/21 10:23:23;;;;;;;1.83;0.55;;;22.80;53.80;;;;;;5036893;28;20037;-63
2022/11/21 10:25:58;;;;;;;;;;;22.80;53.80;;;;;;5037405;28;20516;-63
2022/11/21 10:28:38;;;;;;;0.95;0.63;;;22.80;53.90;;;;;;5038708;28;20356;-64
2022/11/21 10:31:10;;;;;;;0.82;0.65;;;22.80;54.10;;;;;;5034002;28;20025;-63
2022/11/21 10:33:39;;;;;;;1.63;0.80;;;22.80;54.10;;;;;;5029848;28;20030;-65
2022/11/21 10:36:19;;;;;;;1.10;0.70;;;22.80;54.10;;;;;;5042053;28;20158;-64
2022/11/21 10:38:49;;;;;;;2.47;0.70;;;22.70;54.20;;;;;;5034399;28;20091;-64
2022/11/21 10:41:30;;;;;;;1.08;0.50;;;22.70;54.10;;;;;;5027361;28;20480;-63
2022/11/21 10:46:59;;;;;;;1.20;0.70;;;22.80;54.20;;;;;;5030826;28;20144;-65
2022/11/21 10:49:34;;;;;;;1.33;0.93;;;22.70;54.10;;;;;;5032101;28;20044;-64
2022/11/21 10:52:13;;;;;;;1.63;0.65;;;22.70;54.20;;;;;;5027875;28;20021;-63
2022/11/21 10:54:57;;;;;;;;;;;22.70;54.30;;;;;;5025264;28;20026;-63
2022/11/21 10:57:27;;;;;;;2.50;0.60;;;22.70;54.40;;;;;;5031213;28;19966;-64
2022/11/21 11:00:12;;;;;;;1.00;0.60;;;22.70;54.50;;;;;;5042406;28;20393;-63
2022/11/21 11:02:57;;;;;;;1.85;0.65;;;22.70;54.40;;;;;;5042711;28;20060;-63
2022/11/21 11:05:25;;;;;;;1.63;0.68;;;22.70;54.30;;;;;;5031725;28;20034;-64
2022/11/21 11:08:09;;;;;;;0.52;0.50;;;22.70;54.20;;;;;;5033853;28;20017;-64
2022/11/21 11:10:36;;;;;;;1.85;0.80;;;22.70;54.20;;;;;;5041130;28;20033;-63
2022/11/21 11:13:33;;;;;;;1.50;0.60;;;22.70;54.40;;;;;;5044183;28;20044;-63
2022/11/21 11:16:11;;;;;;;0.93;0.70;;;22.70;54.40;;;;;;5031491;28;20033;-64
2022/11/21 11:18:44;;;;;;;3.40;0.80;;;22.70;54.30;;;;;;5027357;28;20072;-64
2022/11/21 11:21:22;;;;;;;0.93;0.70;;;22.70;54.30;;;;;;5028301;28;20057;-65
2022/11/21 11:23:52;;;;;;;1.58;0.70;;;22.70;54.30;;;;;;5035442;28;20029;-64
2022/11/21 11:26:24;;;;;;;1.33;0.60;;;22.70;54.30;;;;;;5033924;28;20498;-64
2022/11/21 11:28:50;;;;;;;1.75;0.80;;;22.60;54.30;;;;;;5028551;28;20556;-64
2022/11/21 11:31:16;;;;;;;1.55;0.70;;;22.70;54.30;;;;;;5031280;28;20117;-64
2022/11/21 11:33:47;;;;;;;1.70;0.80;;;22.70;54.30;;;;;;5025688;28;20033;-64
2022/11/21 11:36:33;;;;;;;1.30;0.60;;;22.60;54.30;;;;;;5036214;28;20029;-64
2022/11/21 11:39:02;;;;;;;2.03;0.68;;;22.60;54.30;;;;;;5031617;28;20412;-64
2022/11/21 11:48:02;;;;;;;1.00;0.57;;;22.60;54.60;;;;;;5040482;28;20508;-65
2022/11/21 11:50:38;;;;;;;1.17;0.60;;;22.50;54.60;;;;;;5037303;28;20475;-64
2022/11/21 11:53:09;;;;;;;1.02;0.70;;;22.50;54.80;;;;;;5028487;28;20026;-64
2022/11/21 11:55:46;;;;;;;0.82;0.60;;;22.50;54.90;;;;;;5037328;28;20220;-64
2022/11/21 11:58:24;;;;;;;1.40;0.60;;;22.50;55.00;;;;;;5036068;28;20523;-64
2022/11/21 12:00:50;;;;;;;1.60;0.80;;;22.50;55.10;;;;;;5038397;28;20530;-63
2022/11/21 12:03:23;;;;;;;1.38;0.60;;;22.50;54.90;;;;;;5031464;28;20029;-64
2022/11/21 12:06:04;;;;;;;1.13;0.63;;;22.50;55.00;;;;;;5033366;28;20061;-64
2022/11/21 12:08:58;;;;;;;0.60;0.40;;;22.60;55.30;;;;;;5028841;28;20950;-64
2022/11/21 12:17:20;;;;;;;1.13;0.50;;;22.70;56.20;;;;;;5035932;28;20072;-63
2022/11/21 12:19:48;;;;;;;1.20;0.60;;;22.80;56.40;;;;;;5036504;28;20527;-64
2022/11/21 12:22:14;;;;;;;1.20;0.60;;;22.80;55.70;;;;;;5036567;28;20542;-64
2022/11/21 12:24:39;;;;;;;1.05;0.60;;;22.80;54.90;;;;;;5032788;28;20025;-63
2022/11/21 12:27:28;;;;;;;1.40;0.70;;;22.80;54.40;;;;;;5044901;28;20031;-64
2022/11/21 12:30:31;;;;;;;0.80;0.50;;;22.80;54.00;;;;;;5037028;28;20017;-64
2022/11/21 12:33:15;;;;;;;1.17;0.70;;;22.80;53.90;;;;;;5025588;28;20126;-64
2022/11/21 12:36:07;;;;;;;2.15;0.60;;;22.80;53.90;;;;;;5043432;28;20072;-63
2022/11/21 12:38:45;;;;;;;1.00;0.50;;;22.80;53.70;;;;;;5025029;28;20083;-63
2022/11/21 12:44:55;;;;;;;1.10;0.57;;;22.80;53.90;;;;;;5031824;28;20088;-64
2022/11/21 12:47:21;;;;;;;0.85;0.50;;;22.80;53.90;;;;;;5037637;28;20020;-62
2022/11/21 12:55:39;;;;;;;1.05;0.60;;;22.80;54.40;;;;;;5040878;28;20064;-65
2022/11/21 12:58:26;;;;;;;1.17;0.63;;;22.80;54.00;;;;;;5039898;28;20255;-64
2022/11/21 13:01:16;;;;;;;1.00;0.60;;;22.80;53.90;;;;;;5030366;28;20029;-65
2022/11/21 13:04:04;;;;;;;0.98;0.68;;;22.80;54.00;;;;;;5029061;28;20141;-65
2022/11/21 13:06:42;;;;;;;0.68;0.55;;;22.90;54.10;;;;;;5035806;28;20167;-65
2022/11/21 13:09:13;;;;;;;1.40;0.70;;;22.90;54.10;;;;;;5036238;28;20152;-65
2022/11/21 13:11:59;;;;;;;1.58;0.70;;;22.80;54.00;;;;;;5031009;28;20607;-65
2022/11/21 13:14:30;;;;;;;0.40;0.40;;;22.90;54.10;;;;;;5024138;28;20036;-65
2022/11/21 13:17:07;;;;;;;1.27;0.60;;;22.90;54.00;;;;;;5022948;28;20136;-64
2022/11/21 13:19:52;;;;;;;0.87;0.60;;;22.90;54.00;;;;;;5029948;28;20033;-65
2022/11/21 13:22:36;;;;;;;1.10;0.60;;;22.90;54.00;;;;;;5032766;28;20029;-64
2022/11/21 13:25:39;;;;;;;1.38;0.70;;;22.90;53.90;;;;;;5034864;28;20040;-64
2022/11/21 13:28:17;;;;;;;1.33;0.70;;;22.90;54.10;;;;;;5033667;28;20030;-64
2022/11/21 13:30:52;;;;;;;2.22;0.80;;;23.00;54.10;;;;;;5036091;28;20445;-64
2022/11/21 13:33:33;;;;;;;1.80;1.00;;;23.00;54.00;;;;;;5044287;28;20026;-63
2022/11/21 13:35:59;;;;;;;1.73;0.70;;;23.00;53.90;;;;;;5041920;28;20496;-63
2022/11/21 13:38:24;;;;;;;2.58;0.90;;;23.00;53.90;;;;;;5035112;28;20060;-63